Time;durP1;ratioP1;P1;durP2;ratioP2;P2;SDS_P1;SDS_P2;PMS_P1;PMS_P2;Temp;Humidity;BMP_temperature;BMP_pressure;BME280_temperature;BME280_humidity;BME280_pressure;Samples;Min_cycle;Max_cycle;Signal;HPM_P1;HPM_P2
2023/05/21 00:00:47;;;;;;;;;;;14.40;99.90;;;;;;5083792;28;19974;-76
2023/05/21 00:03:13;;;;;;;;;;;14.40;99.90;;;;;;5082691;28;19924;-76
2023/05/21 00:05:43;;;;;;;;;;;14.40;99.90;;;;;;5064960;28;19986;-76
2023/05/21 00:08:08;;;;;;;;;;;14.40;99.90;;;;;;5049455;28;19999;-76
2023/05/21 00:10:34;;;;;;;;;;;14.40;99.90;;;;;;5098811;28;19963;-76
2023/05/21 00:12:59;;;;;;;;;;;14.30;99.90;;;;;;5062480;28;19924;-76
2023/05/21 00:15:25;;;;;;;;;;;14.30;99.90;;;;;;5099369;28;19923;-76
2023/05/21 00:17:50;;;;;;;;;;;14.30;99.90;;;;;;5079186;28;19932;-76
2023/05/21 00:20:16;;;;;;;;;;;14.30;99.90;;;;;;5069458;28;19930;-76
2023/05/21 00:22:42;;;;;;;;;;;14.30;99.90;;;;;;5089966;28;19924;-76
2023/05/21 00:25:08;;;;;;;;;;;14.30;99.90;;;;;;5054979;28;20428;-76
2023/05/21 00:27:34;;;;;;;;;;;14.30;99.90;;;;;;5106861;28;20027;-76
2023/05/21 00:30:00;;;;;;;;;;;14.30;99.90;;;;;;5082034;28;19934;-76
2023/05/21 00:32:25;;;;;;;;;;;14.30;99.90;;;;;;5066292;28;19924;-76
2023/05/21 00:34:51;;;;;;;;;;;14.30;99.90;;;;;;5085004;28;19939;-76
2023/05/21 00:37:16;;;;;;;;;;;14.30;99.90;;;;;;5081945;28;19924;-76
2023/05/21 00:39:42;;;;;;;;;;;14.30;99.90;;;;;;5048644;28;19930;-76
2023/05/21 00:42:08;;;;;;;;;;;14.30;99.90;;;;;;5055019;28;20345;-76
2023/05/21 00:44:34;;;;;;;;;;;14.30;99.90;;;;;;5099456;28;20399;-76
2023/05/21 00:47:01;;;;;;;;;;;14.30;99.90;;;;;;5065832;28;20018;-76
2023/05/21 00:49:26;;;;;;;;;;;14.20;99.90;;;;;;5074474;28;19924;-76
2023/05/21 00:51:53;;;;;;;;;;;14.20;99.90;;;;;;5071980;28;19925;-77
2023/05/21 00:54:19;;;;;;;;;;;14.20;99.90;;;;;;5065014;28;20010;-75
2023/05/21 00:56:46;;;;;;;;;;;14.20;99.90;;;;;;5066707;28;20319;-77
2023/05/21 00:59:11;;;;;;;;;;;14.20;99.90;;;;;;5066702;28;19924;-76
2023/05/21 01:01:37;;;;;;;;;;;14.20;99.90;;;;;;5082788;28;19924;-76
2023/05/21 01:04:03;;;;;;;;;;;14.20;99.90;;;;;;5048828;28;19935;-76
2023/05/21 01:06:28;;;;;;;;;;;14.20;99.90;;;;;;5058130;28;20339;-76
2023/05/21 01:08:57;;;;;;;;;;;14.20;99.90;;;;;;5065284;28;20382;-75
2023/05/21 01:11:36;;;;;;;;;;;14.10;99.90;;;;;;5097168;28;19924;-76
2023/05/21 01:14:02;;;;;;;;;;;14.20;99.90;;;;;;5074640;28;19924;-76
2023/05/21 01:16:28;;;;;;;;;;;14.20;99.90;;;;;;5045475;28;20403;-76
2023/05/21 01:18:53;;;;;;;;;;;14.20;99.90;;;;;;5048093;28;19924;-76
2023/05/21 01:21:20;;;;;;;;;;;14.20;99.90;;;;;;5081442;28;19931;-75
2023/05/21 01:23:46;;;;;;;;;;;14.20;99.90;;;;;;5068550;28;19970;-76
2023/05/21 01:26:11;;;;;;;;;;;14.20;99.90;;;;;;5065773;28;20306;-75
2023/05/21 01:28:37;;;;;;;;;;;14.20;99.90;;;;;;5045722;28;19928;-75
2023/05/21 01:31:07;;;;;;;;;;;14.20;99.90;;;;;;5076202;28;19928;-75
2023/05/21 01:33:42;;;;;;;;;;;14.20;99.90;;;;;;5064649;28;19924;-75
2023/05/21 01:36:10;;;;;;;;;;;14.20;99.90;;;;;;5081562;28;19924;-76
2023/05/21 01:38:40;;;;;;;;;;;14.20;99.90;;;;;;5081651;28;19929;-75
2023/05/21 01:41:12;;;;;;;;;;;14.20;99.90;;;;;;5097502;28;19924;-75
2023/05/21 01:43:38;;;;;;;;;;;14.20;99.90;;;;;;5097165;28;19929;-75
2023/05/21 01:46:05;;;;;;;;;;;14.20;99.90;;;;;;5062568;28;19931;-76
2023/05/21 01:48:31;;;;;;;;;;;14.20;99.90;;;;;;5064212;28;19934;-75
2023/05/21 01:50:58;;;;;;;;;;;14.20;99.90;;;;;;5080676;28;20350;-75
2023/05/21 01:53:24;;;;;;;;;;;14.20;99.90;;;;;;5063939;28;20422;-75
2023/05/21 01:55:50;;;;;;;;;;;14.20;99.90;;;;;;5059610;28;19939;-75
2023/05/21 01:58:16;;;;;;;;;;;14.10;99.90;;;;;;5079664;28;19924;-76
2023/05/21 02:00:41;;;;;;;;;;;14.10;99.90;;;;;;5046874;28;20455;-75
2023/05/21 02:03:07;;;;;;;;;;;14.00;99.90;;;;;;5062578;28;19970;-75
2023/05/21 02:05:33;;;;;;;;;;;14.00;99.90;;;;;;5055864;28;19935;-75
2023/05/21 02:07:58;;;;;;;;;;;14.00;99.90;;;;;;5096566;28;19934;-75
2023/05/21 02:10:24;;;;;;;;;;;14.00;99.90;;;;;;5113214;28;19969;-76
2023/05/21 02:12:50;;;;;;;;;;;13.90;99.90;;;;;;5064424;28;19924;-75
2023/05/21 02:15:18;;;;;;;;;;;13.90;99.90;;;;;;5063855;28;19959;-75
2023/05/21 02:17:45;;;;;;;;;;;13.90;99.90;;;;;;5075688;28;19956;-75
2023/05/21 02:20:10;;;;;;;;;;;14.00;99.90;;;;;;5062647;28;20372;-76
2023/05/21 02:22:43;;;;;;;;;;;13.90;99.90;;;;;;5081039;28;19928;-77
2023/05/21 02:25:10;;;;;;;;;;;13.90;99.90;;;;;;5063846;28;19931;-76
2023/05/21 02:27:36;;;;;;;;;;;13.90;99.90;;;;;;5080465;28;19936;-76
2023/05/21 02:30:03;;;;;;;;;;;13.90;99.90;;;;;;5063528;28;19931;-75
2023/05/21 02:32:30;;;;;;;;;;;14.00;99.90;;;;;;5080840;28;19947;-76
2023/05/21 02:34:57;;;;;;;;;;;14.00;99.90;;;;;;5074611;28;19924;-76
2023/05/21 02:37:24;;;;;;;;;;;14.00;99.90;;;;;;5063304;28;19950;-76
2023/05/21 02:39:49;;;;;;;;;;;14.00;99.90;;;;;;5058417;28;19988;-76
2023/05/21 02:42:15;;;;;;;;;;;14.00;99.90;;;;;;5059150;28;20030;-76
2023/05/21 02:44:41;;;;;;;;;;;14.10;99.90;;;;;;5094083;28;19928;-76
2023/05/21 02:47:09;;;;;;;;;;;14.00;99.90;;;;;;5112978;28;19924;-76
2023/05/21 02:49:34;;;;;;;;;;;14.00;99.90;;;;;;5071799;28;19978;-76
2023/05/21 02:52:00;;;;;;;;;;;14.00;99.90;;;;;;5062902;28;19928;-76
2023/05/21 02:54:25;;;;;;;;;;;14.00;99.90;;;;;;5078931;28;19928;-75
2023/05/21 02:56:51;;;;;;;;;;;14.00;99.90;;;;;;5097479;28;19928;-76
2023/05/21 02:59:17;;;;;;;;;;;14.00;99.90;;;;;;5043138;28;19935;-76
2023/05/21 03:01:43;;;;;;;;;;;13.90;99.90;;;;;;5074245;28;20657;-76
2023/05/21 03:04:09;;;;;;;;;;;14.00;99.90;;;;;;5082428;28;20402;-76
2023/05/21 03:06:35;;;;;;;;;;;14.00;99.90;;;;;;5082061;28;19931;-76
2023/05/21 03:09:01;;;;;;;;;;;14.00;99.90;;;;;;5097013;28;19928;-76
2023/05/21 03:11:27;;;;;;;;;;;14.00;99.90;;;;;;5096165;28;19932;-76
2023/05/21 03:13:52;;;;;;;;;;;14.00;99.90;;;;;;5048065;28;19950;-76
2023/05/21 03:16:18;;;;;;;;;;;14.00;99.90;;;;;;5081722;28;19924;-76
2023/05/21 03:18:44;;;;;;;;;;;14.00;99.90;;;;;;5079476;28;19931;-76
2023/05/21 03:21:12;;;;;;;;;;;13.90;99.90;;;;;;5066607;28;19924;-76
2023/05/21 03:23:38;;;;;;;;;;;13.90;99.90;;;;;;5077992;28;19933;-76
2023/05/21 03:26:03;;;;;;;;;;;14.00;99.90;;;;;;5080266;28;19974;-76
2023/05/21 03:28:29;;;;;;;;;;;13.90;99.90;;;;;;5070341;28;19986;-76
2023/05/21 03:30:55;;;;;;;;;;;13.90;99.90;;;;;;5080050;28;19950;-76
2023/05/21 03:33:21;;;;;;;;;;;13.90;99.90;;;;;;5094304;28;19928;-76
2023/05/21 03:35:46;;;;;;;;;;;13.90;99.90;;;;;;5068868;28;19924;-76
2023/05/21 03:38:12;;;;;;;;;;;13.90;99.90;;;;;;5098339;28;19924;-76
2023/05/21 03:40:38;;;;;;;;;;;13.90;99.90;;;;;;5067746;28;20411;-77
2023/05/21 03:43:03;;;;;;;;;;;13.90;99.90;;;;;;5065947;28;20015;-76
2023/05/21 03:45:29;;;;;;;;;;;13.90;99.90;;;;;;5073957;28;19935;-76
2023/05/21 03:47:54;;;;;;;;;;;13.90;99.90;;;;;;5084567;28;19924;-76
2023/05/21 03:50:20;;;;;;;;;;;13.90;99.90;;;;;;5061221;28;20394;-76
2023/05/21 03:52:46;;;;;;;;;;;13.90;99.90;;;;;;5093951;28;19924;-77
2023/05/21 03:55:11;;;;;;;;;;;13.90;99.90;;;;;;5078330;28;19957;-76
2023/05/21 03:57:37;;;;;;;;;;;13.90;99.90;;;;;;5063913;28;19931;-76
2023/05/21 04:00:04;;;;;;;;;;;13.90;99.90;;;;;;5068778;28;19924;-76
2023/05/21 04:02:30;;;;;;;;;;;13.90;99.90;;;;;;5046938;28;19924;-76
2023/05/21 04:04:55;;;;;;;;;;;13.90;99.90;;;;;;5061631;28;19925;-77
2023/05/21 04:07:21;;;;;;;;;;;13.90;99.90;;;;;;5060770;28;20424;-76
2023/05/21 04:09:47;;;;;;;;;;;13.80;99.90;;;;;;5110423;28;19924;-77
2023/05/21 04:12:12;;;;;;;;;;;13.90;99.90;;;;;;5064355;28;19924;-77
2023/05/21 04:14:38;;;;;;;;;;;13.80;99.90;;;;;;5078510;28;19940;-76
2023/05/21 04:17:04;;;;;;;;;;;13.90;99.90;;;;;;5050006;28;19951;-76
2023/05/21 04:19:30;;;;;;;;;;;13.80;99.90;;;;;;5080491;28;20479;-76
2023/05/21 04:21:56;;;;;;;;;;;13.90;99.90;;;;;;5063900;28;19928;-77
2023/05/21 04:24:22;;;;;;;;;;;13.90;99.90;;;;;;5097259;28;19928;-77
2023/05/21 04:26:48;;;;;;;;;;;13.90;99.90;;;;;;5062087;28;20294;-77
2023/05/21 04:29:16;;;;;;;;;;;13.90;99.90;;;;;;5079662;28;19924;-77
2023/05/21 04:31:42;;;;;;;;;;;13.90;99.90;;;;;;5081723;28;19928;-77
2023/05/21 04:34:08;;;;;;;;;;;14.00;99.90;;;;;;5082545;28;19924;-77
2023/05/21 04:36:33;;;;;;;;;;;14.00;99.90;;;;;;5064481;28;19931;-77
2023/05/21 04:39:00;;;;;;;;;;;14.00;99.90;;;;;;5064655;28;19973;-77
2023/05/21 04:41:25;;;;;;;;;;;14.00;99.90;;;;;;5064447;28;19959;-77
2023/05/21 04:43:53;;;;;;;;;;;14.00;99.90;;;;;;5065149;28;19932;-77
2023/05/21 04:46:23;;;;;;;;;;;14.00;99.90;;;;;;5081738;28;20337;-77
2023/05/21 04:48:53;;;;;;;;;;;14.00;99.90;;;;;;5064334;28;19932;-77
2023/05/21 04:51:23;;;;;;;;;;;14.00;99.90;;;;;;5081862;28;19982;-76
2023/05/21 04:53:49;;;;;;;;;;;14.00;99.90;;;;;;5061984;28;19924;-77
2023/05/21 04:56:16;;;;;;;;;;;14.00;99.90;;;;;;5049190;28;19972;-76
2023/05/21 04:58:41;;;;;;;;;;;14.00;99.90;;;;;;5079667;28;19956;-77
2023/05/21 05:01:07;;;;;;;;;;;14.00;99.90;;;;;;5065523;28;19924;-77
2023/05/21 05:03:33;;;;;;;;;;;14.10;99.90;;;;;;5063960;28;19924;-76
2023/05/21 05:05:58;;;;;;;;;;;14.10;99.90;;;;;;5082378;28;19927;-77
2023/05/21 05:08:24;;;;;;;;;;;14.10;99.90;;;;;;5097365;28;20338;-77
2023/05/21 05:10:50;;;;;;;;;;;14.10;99.90;;;;;;5060614;28;19924;-77
2023/05/21 05:13:15;;;;;;;;;;;14.10;99.90;;;;;;5062644;28;19923;-76
2023/05/21 05:15:41;;;;;;;;;;;14.10;99.90;;;;;;5080247;28;20344;-77
2023/05/21 05:18:10;;;;;;;;;;;14.10;99.90;;;;;;5082130;28;19930;-77
2023/05/21 05:20:36;;;;;;;;;;;14.10;99.90;;;;;;5080865;28;19984;-76
2023/05/21 05:23:01;;;;;;;;;;;14.10;99.90;;;;;;5054424;28;19959;-76
2023/05/21 05:25:27;;;;;;;;;;;14.10;99.90;;;;;;5058010;28;19946;-76
2023/05/21 05:27:52;;;;;;;;;;;14.10;99.90;;;;;;5062161;28;19924;-76
2023/05/21 05:30:19;;;;;;;;;;;14.10;99.90;;;;;;5050661;28;20438;-78
2023/05/21 05:32:45;;;;;;;;;;;14.20;99.90;;;;;;5091603;28;19924;-77
2023/05/21 05:35:11;;;;;;;;;;;14.20;99.90;;;;;;5065220;28;19967;-76
2023/05/21 05:37:36;;;;;;;;;;;14.20;99.90;;;;;;5080807;28;19928;-76
2023/05/21 05:40:03;;;;;;;;;;;14.30;99.90;;;;;;5064716;28;19984;-76
2023/05/21 05:42:29;;;;;;;;;;;14.30;99.90;;;;;;5064165;28;19994;-76
2023/05/21 05:44:54;;;;;;;;;;;14.40;99.90;;;;;;5062416;28;19928;-76
2023/05/21 05:47:20;;;;;;;;;;;14.30;99.90;;;;;;5050159;28;19928;-76
2023/05/21 05:49:46;;;;;;;;;;;14.50;99.90;;;;;;5057395;28;19924;-76
2023/05/21 05:52:11;;;;;;;;;;;14.50;99.90;;;;;;5059277;28;20441;-76
2023/05/21 05:54:37;;;;;;;;;;;14.50;99.90;;;;;;5088171;28;19951;-76
2023/05/21 05:57:03;;;;;;;;;;;14.50;99.90;;;;;;5063397;28;19924;-76
2023/05/21 05:59:28;;;;;;;;;;;14.60;99.90;;;;;;5062696;28;19931;-76
2023/05/21 06:01:54;;;;;;;;;;;14.60;99.90;;;;;;5041443;28;19932;-76
2023/05/21 06:04:19;;;;;;;;;;;14.70;99.90;;;;;;5080211;28;19946;-76
2023/05/21 06:06:46;;;;;;;;;;;14.70;99.90;;;;;;5062097;28;19924;-76
2023/05/21 06:09:11;;;;;;;;;;;14.80;99.90;;;;;;5066332;28;19924;-76
2023/05/21 06:11:37;;;;;;;;;;;14.80;99.90;;;;;;5051640;28;19953;-76
2023/05/21 06:14:03;;;;;;;;;;;14.90;99.90;;;;;;5080720;28;19929;-76
2023/05/21 06:16:32;;;;;;;;;;;14.90;99.90;;;;;;5061072;28;19936;-76
2023/05/21 06:18:58;;;;;;;;;;;15.00;99.90;;;;;;5063836;28;19954;-76
2023/05/21 06:21:23;;;;;;;;;;;15.00;99.90;;;;;;5064715;28;19928;-76
2023/05/21 06:23:49;;;;;;;;;;;15.10;99.90;;;;;;5049945;28;19924;-76
2023/05/21 06:26:15;;;;;;;;;;;15.20;99.90;;;;;;5093619;28;19924;-76
2023/05/21 06:28:40;;;;;;;;;;;15.30;99.90;;;;;;5063632;28;19955;-75
2023/05/21 06:31:06;;;;;;;;;;;15.30;99.90;;;;;;5079351;28;19928;-76
2023/05/21 06:33:32;;;;;;;;;;;15.50;99.90;;;;;;5060798;28;19935;-76
2023/05/21 06:35:57;;;;;;;;;;;15.60;99.90;;;;;;5048928;28;19946;-76
2023/05/21 06:38:23;;;;;;;;;;;15.70;99.90;;;;;;5059821;28;19928;-76
2023/05/21 06:40:48;;;;;;;;;;;15.90;99.90;;;;;;5043011;28;20034;-76
2023/05/21 06:43:14;;;;;;;;;;;16.00;99.90;;;;;;5096061;28;19928;-76
2023/05/21 06:45:40;;;;;;;;;;;16.10;99.90;;;;;;5045080;28;19925;-76
2023/05/21 06:48:05;;;;;;;;;;;16.20;99.90;;;;;;5072733;28;19935;-76
2023/05/21 06:50:31;;;;;;;;;;;16.20;99.90;;;;;;5042686;28;19929;-76
2023/05/21 06:52:56;;;;;;;;;;;16.30;99.90;;;;;;5052563;28;19932;-76
2023/05/21 06:55:22;;;;;;;;;;;16.40;99.90;;;;;;5060369;28;19963;-75
2023/05/21 06:57:47;;;;;;;;;;;16.50;99.90;;;;;;5077652;28;19928;-75
2023/05/21 07:00:13;;;;;;;;;;;16.50;99.90;;;;;;5063594;28;20006;-76
2023/05/21 07:02:39;;;;;;;;;;;16.60;99.90;;;;;;5057933;28;19924;-76
2023/05/21 07:05:05;;;;;;;;;;;16.70;99.90;;;;;;5081455;28;19927;-76
2023/05/21 07:07:30;;;;;;;;;;;16.80;99.90;;;;;;5079047;28;19928;-75
2023/05/21 07:09:56;;;;;;;;;;;16.90;99.90;;;;;;5061500;28;20433;-76
2023/05/21 07:12:21;;;;;;;;;;;16.80;99.90;;;;;;5046045;28;19991;-76
2023/05/21 07:14:47;;;;;;;;;;;16.90;99.90;;;;;;5062153;28;19924;-76
2023/05/21 07:17:12;;;;;;;;;;;16.80;99.90;;;;;;5108916;28;19924;-77
2023/05/21 07:19:38;;;;;;;;;;;16.70;99.90;;;;;;5080388;28;19931;-77
2023/05/21 07:22:04;;;;;;;;;;;16.70;99.90;;;;;;5040165;28;19945;-77
2023/05/21 07:24:30;;;;;;;;;;;16.80;99.90;;;;;;5045547;28;19928;-76
2023/05/21 07:26:55;;;;;;;;;;;16.80;99.90;;;;;;5065809;28;19924;-77
2023/05/21 07:29:21;;;;;;;;;;;16.90;99.90;;;;;;5063457;28;19927;-79
2023/05/21 07:31:46;;;;;;;;;;;17.00;99.90;;;;;;5061792;28;19947;-79
2023/05/21 07:34:12;;;;;;;;;;;17.20;99.90;;;;;;5047892;28;19978;-79
2023/05/21 07:36:38;;;;;;;;;;;17.30;99.90;;;;;;5094884;28;19976;-80
2023/05/21 07:39:03;;;;;;;;;;;17.50;99.90;;;;;;5046168;28;19928;-79
2023/05/21 07:41:29;;;;;;;;;;;17.70;99.90;;;;;;5074199;28;19940;-79
2023/05/21 07:43:55;;;;;;;;;;;17.80;99.90;;;;;;5074775;28;19924;-78
2023/05/21 07:46:20;;;;;;;;;;;18.00;99.90;;;;;;5043391;28;19938;-79
2023/05/21 07:48:47;;;;;;;;;;;18.10;99.90;;;;;;5090343;28;20011;-79
2023/05/21 07:51:13;;;;;;;;;;;18.10;99.90;;;;;;5076926;28;20424;-78
2023/05/21 07:53:38;;;;;;;;;;;18.10;99.90;;;;;;5059563;28;19925;-79
2023/05/21 07:56:04;;;;;;;;;;;18.10;99.90;;;;;;5096996;28;19924;-78
2023/05/21 07:58:30;;;;;;;;;;;18.10;99.90;;;;;;5074751;28;19930;-78
2023/05/21 08:00:56;;;;;;;;;;;18.10;99.90;;;;;;5065743;28;19932;-79
2023/05/21 08:03:21;;;;;;;;;;;18.10;99.90;;;;;;5071959;28;19927;-78
2023/05/21 08:05:47;;;;;;;;;;;18.10;99.90;;;;;;5078539;28;19988;-79
2023/05/21 08:08:14;;;;;;;;;;;18.10;99.90;;;;;;5079073;28;19924;-79
2023/05/21 08:10:40;;;;;;;;;;;18.10;99.90;;;;;;5060823;28;19924;-80
2023/05/21 08:13:06;;;;;;;;;;;18.10;99.90;;;;;;5077605;28;19934;-80
2023/05/21 08:15:31;;;;;;;;;;;18.20;99.90;;;;;;5093749;28;19931;-79
2023/05/21 08:17:57;;;;;;;;;;;18.30;99.90;;;;;;5070617;28;19923;-79
2023/05/21 08:20:22;;;;;;;;;;;18.30;99.90;;;;;;5061355;28;20036;-79
2023/05/21 08:22:48;;;;;;;;;;;18.40;99.90;;;;;;5083871;28;20014;-80
2023/05/21 08:25:14;;;;;;;;;;;18.50;99.90;;;;;;5094530;28;20013;-79
2023/05/21 08:27:41;;;;;;;;;;;18.50;99.90;;;;;;5062665;28;19925;-80
2023/05/21 08:30:09;;;;;;;;;;;18.50;99.90;;;;;;5117451;28;20007;-79
2023/05/21 08:32:34;;;;;;;;;;;18.40;99.90;;;;;;5063709;28;19928;-79
2023/05/21 08:35:00;;;;;;;;;;;18.30;99.90;;;;;;5099142;28;19988;-79
2023/05/21 08:37:26;;;;;;;;;;;18.30;99.90;;;;;;5052255;28;20011;-79
2023/05/21 08:39:51;;;;;;;;;;;18.20;99.90;;;;;;5078233;28;19932;-79
2023/05/21 08:42:23;;;;;;;;;;;18.20;99.90;;;;;;5048685;28;19931;-79
2023/05/21 08:44:51;;;;;;;;;;;18.20;99.90;;;;;;5066404;28;19924;-74
2023/05/21 08:47:21;;;;;;;;;;;18.20;99.90;;;;;;5070015;28;19949;-75
2023/05/21 08:49:47;;;;;;;;;;;18.30;99.90;;;;;;5064807;28;19924;-79
2023/05/21 08:52:13;;;;;;;;;;;18.30;99.90;;;;;;5079600;28;19939;-79
2023/05/21 08:54:39;;;;;;;;;;;18.40;99.90;;;;;;5067208;28;19928;-78
2023/05/21 08:57:05;;;;;;;;;;;18.50;99.90;;;;;;5094875;28;19991;-80
2023/05/21 08:59:34;;;;;;;;;;;18.70;99.90;;;;;;5064544;28;20849;-79
2023/05/21 09:02:00;;;;;;;;;;;18.80;99.90;;;;;;5080778;28;19924;-80
2023/05/21 09:04:27;;;;;;;;;;;19.00;99.90;;;;;;5066192;28;19924;-80
2023/05/21 09:06:53;;;;;;;;;;;19.10;99.90;;;;;;5080980;28;19994;-79
2023/05/21 09:09:25;;;;;;;;;;;19.20;99.90;;;;;;5065777;28;19924;-79
2023/05/21 09:11:50;;;;;;;;;;;19.20;99.90;;;;;;5065066;28;19924;-80
2023/05/21 09:14:17;;;;;;;;;;;19.20;99.90;;;;;;5064848;28;19963;-79
2023/05/21 09:16:44;;;;;;;;;;;19.20;99.90;;;;;;5065575;28;19955;-79
2023/05/21 09:19:10;;;;;;;;;;;19.30;99.90;;;;;;5063280;28;19924;-77
2023/05/21 09:21:37;;;;;;;;;;;19.30;99.90;;;;;;5081992;28;19978;-79
2023/05/21 09:24:03;;;;;;;;;;;19.30;99.90;;;;;;5065467;28;19924;-78
2023/05/21 09:26:29;;;;;;;;;;;19.30;99.90;;;;;;5080377;28;19963;-79
2023/05/21 09:28:55;;;;;;;;;;;19.30;99.90;;;;;;5066701;28;20394;-78
2023/05/21 09:31:22;;;;;;;;;;;19.30;99.90;;;;;;5061542;28;19951;-79
2023/05/21 09:33:48;;;;;;;;;;;19.30;99.90;;;;;;5105855;28;20516;-78
2023/05/21 09:36:14;;;;;;;;;;;19.30;99.90;;;;;;5064295;28;19924;-76
2023/05/21 09:38:39;;;;;;;;;;;19.40;99.90;;;;;;5065590;28;20008;-81
2023/05/21 09:41:05;;;;;;;;;;;19.40;99.90;;;;;;5063801;28;19946;-78
2023/05/21 09:43:31;;;;;;;;;;;19.40;99.90;;;;;;5063972;28;19973;-78
2023/05/21 09:45:57;;;;;;;;;;;19.40;99.90;;;;;;5043499;28;19980;-78
2023/05/21 09:48:33;;;;;;;;;;;19.40;99.90;;;;;;5059897;28;19924;-77
2023/05/21 09:51:08;;;;;;;;;;;19.50;99.90;;;;;;5114379;28;19924;-78
2023/05/21 09:53:33;;;;;;;;;;;19.50;99.90;;;;;;5067135;28;20076;-77
2023/05/21 09:55:59;;;;;;;;;;;19.60;99.90;;;;;;5052080;28;19924;-77
2023/05/21 09:58:24;;;;;;;;;;;19.60;99.90;;;;;;5074474;28;19946;-77
2023/05/21 10:00:51;;;;;;;;;;;19.70;99.90;;;;;;5044816;28;19924;-78
2023/05/21 10:03:19;;;;;;;;;;;19.80;99.90;;;;;;5076101;28;20342;-77
2023/05/21 10:05:45;;;;;;;;;;;19.80;99.90;;;;;;5080137;28;19924;-78
2023/05/21 10:08:11;;;;;;;;;;;19.90;99.90;;;;;;5080390;28;20024;-78
2023/05/21 10:10:37;;;;;;;;;;;20.10;99.90;;;;;;5051396;28;20311;-78
2023/05/21 10:13:05;;;;;;;;;;;20.20;99.90;;;;;;5047584;28;19928;-78
2023/05/21 10:15:33;;;;;;;;;;;20.30;99.90;;;;;;5054424;28;19939;-78
2023/05/21 10:18:00;;;;;;;;;;;20.50;99.90;;;;;;5091626;28;19939;-78
2023/05/21 10:20:26;;;;;;;;;;;20.70;99.90;;;;;;5063231;28;19928;-79
2023/05/21 10:22:51;;;;;;;;;;;20.90;99.90;;;;;;5050421;28;20033;-78
2023/05/21 10:25:17;;;;;;;;;;;21.20;99.90;;;;;;5044541;28;19929;-77
2023/05/21 10:27:43;;;;;;;;;;;21.40;99.90;;;;;;5090002;28;19928;-78
2023/05/21 10:30:10;;;;;;;;;;;21.70;99.90;;;;;;5058395;28;19924;-77
2023/05/21 10:32:38;;;;;;;;;;;21.80;99.90;;;;;;5094524;28;19932;-77
2023/05/21 10:35:04;;;;;;;;;;;21.90;99.90;;;;;;5063958;28;19924;-78
2023/05/21 10:37:30;;;;;;;;;;;22.00;99.90;;;;;;5079279;28;19928;-77
2023/05/21 10:39:56;;;;;;;;;;;22.10;99.90;;;;;;5075261;28;19947;-78
2023/05/21 10:42:28;;;;;;;;;;;22.20;99.90;;;;;;5062240;28;19951;-77
2023/05/21 10:45:00;;;;;;;;;;;22.10;99.90;;;;;;5062015;28;19924;-77
2023/05/21 10:47:34;;;;;;;;;;;22.00;99.90;;;;;;5079012;28;19924;-76
2023/05/21 10:49:59;;;;;;;;;;;22.00;99.90;;;;;;5061575;28;19924;-77
2023/05/21 10:52:31;;;;;;;;;;;22.00;99.90;;;;;;5063139;28;19955;-77
2023/05/21 10:54:57;;;;;;;;;;;22.10;99.90;;;;;;5090564;28;19924;-76
2023/05/21 10:57:41;;;;;;;;;;;22.00;99.90;;;;;;5067405;28;20002;-77
2023/05/21 11:00:08;;;;;;;;;;;22.10;99.90;;;;;;5059181;28;19924;-76
2023/05/21 11:02:34;;;;;;;;;;;22.30;99.90;;;;;;5047302;28;19943;-77
2023/05/21 11:05:00;;;;;;;;;;;22.40;99.90;;;;;;5092549;28;19924;-77
2023/05/21 11:07:44;;;;;;;;;;;22.60;99.90;;;;;;5042818;28;19924;-76
2023/05/21 11:10:31;;;;;;;;;;;22.60;99.90;;;;;;5088170;28;19924;-77
2023/05/21 11:13:06;;;;;;;;;;;22.60;99.90;;;;;;5080942;28;19949;-76
2023/05/21 11:15:51;;;;;;;;;;;22.70;99.90;;;;;;5058899;28;19987;-77
2023/05/21 11:18:17;;;;;;;;;;;22.70;99.90;;;;;;5048312;28;19946;-77
2023/05/21 11:20:49;;;;;;;;;;;22.70;99.90;;;;;;5062508;28;19925;-77
2023/05/21 11:23:14;;;;;;;;;;;22.70;99.90;;;;;;5086187;28;19933;-76
2023/05/21 11:25:40;;;;;;;;;;;22.70;99.90;;;;;;5062188;28;20387;-77
2023/05/21 11:28:08;;;;;;;;;;;22.70;99.90;;;;;;5064598;28;20395;-76
2023/05/21 11:30:33;;;;;;;;;;;22.70;99.90;;;;;;5065845;28;19924;-77
2023/05/21 11:33:12;;;;;;;;;;;22.70;99.90;;;;;;5100763;28;20011;-78
2023/05/21 11:35:44;;;;;;;;;;;22.70;99.90;;;;;;5068128;28;19938;-78
2023/05/21 11:38:09;;;;;;;;;;;22.60;99.90;;;;;;5089261;28;19928;-77
2023/05/21 11:40:35;;;;;;;;;;;22.60;99.90;;;;;;5082326;28;19934;-77
2023/05/21 11:43:01;;;;;;;;;;;22.60;99.90;;;;;;5071324;28;19938;-77
2023/05/21 11:45:27;;;;;;;;;;;22.80;99.90;;;;;;5081275;28;19994;-78
2023/05/21 11:47:53;;;;;;;;;;;22.90;99.90;;;;;;5084258;28;19928;-76
2023/05/21 11:50:19;;;;;;;;;;;22.90;99.90;;;;;;5089203;28;19961;-76
2023/05/21 11:52:45;;;;;;;;;;;22.70;99.90;;;;;;5049044;28;19960;-76
2023/05/21 11:55:11;;;;;;;;;;;22.80;99.90;;;;;;5049698;28;19971;-77
2023/05/21 11:57:36;;;;;;;;;;;22.90;99.90;;;;;;5079312;28;19924;-77
2023/05/21 12:00:12;;;;;;;;;;;23.00;99.90;;;;;;5097190;28;20037;-78
2023/05/21 12:02:37;;;;;;;;;;;23.00;99.90;;;;;;5063518;28;19964;-77
2023/05/21 12:05:03;;;;;;;;;;;23.00;99.90;;;;;;5094943;28;19924;-81
2023/05/21 12:07:29;;;;;;;;;;;22.90;99.90;;;;;;5046710;28;19951;-79
2023/05/21 12:09:55;;;;;;;;;;;23.00;99.90;;;;;;5094270;28;19936;-80
2023/05/21 12:12:21;;;;;;;;;;;23.00;99.90;;;;;;5041339;28;19944;-78
2023/05/21 12:14:47;;;;;;;;;;;23.20;99.90;;;;;;5066522;28;19924;-78
2023/05/21 12:17:17;;;;;;;;;;;23.30;99.90;;;;;;5068740;28;19924;-80
2023/05/21 12:19:44;;;;;;;;;;;23.40;99.90;;;;;;5060077;28;19924;-79
2023/05/21 12:22:09;;;;;;;;;;;23.40;99.90;;;;;;5080936;28;19935;-78
2023/05/21 12:24:36;;;;;;;;;;;23.40;99.90;;;;;;5044969;28;19925;-77
2023/05/21 12:27:08;;;;;;;;;;;23.50;99.90;;;;;;5059939;28;19932;-73
2023/05/21 12:29:34;;;;;;;;;;;23.50;99.90;;;;;;5073887;28;19925;-76
2023/05/21 12:32:00;;;;;;;;;;;23.60;99.90;;;;;;5044456;28;19928;-76
2023/05/21 12:34:45;;;;;;;;;;;23.70;99.90;;;;;;5080537;28;19932;-79
2023/05/21 12:37:15;;;;;;;;;;;23.70;99.90;;;;;;5073789;28;19925;-78
2023/05/21 12:39:45;;;;;;;;;;;23.70;99.90;;;;;;5062726;28;19932;-80
2023/05/21 12:42:11;;;;;;;;;;;23.70;99.90;;;;;;5061965;28;20283;-78
2023/05/21 12:44:43;;;;;;;;;;;23.70;99.90;;;;;;5079106;28;19924;-78
2023/05/21 12:47:10;;;;;;;;;;;23.80;99.90;;;;;;5063289;28;19935;-78
2023/05/21 12:49:48;;;;;;;;;;;23.90;99.90;;;;;;5061391;28;19932;-78
2023/05/21 12:52:17;;;;;;;;;;;23.80;99.90;;;;;;5062064;28;20027;-78
2023/05/21 12:54:44;;;;;;;;;;;23.90;99.90;;;;;;5077375;28;20041;-78
2023/05/21 12:57:12;;;;;;;;;;;23.90;99.90;;;;;;5078832;28;19968;-79
2023/05/21 12:59:58;;;;;;;;;;;23.90;99.90;;;;;;5062670;28;20003;-78
2023/05/21 13:02:25;;;;;;;;;;;23.90;99.90;;;;;;5061473;28;19931;-78
2023/05/21 13:04:58;;;;;;;;;;;23.90;99.90;;;;;;5062347;28;19924;-78
2023/05/21 13:07:25;;;;;;;;;;;23.90;99.90;;;;;;5068083;28;20016;-79
2023/05/21 13:09:52;;;;;;;;;;;23.80;99.90;;;;;;5042250;28;19931;-78
2023/05/21 13:12:21;;;;;;;;;;;23.80;99.90;;;;;;5093080;28;19976;-79
2023/05/21 13:14:51;;;;;;;;;;;23.80;99.90;;;;;;5072321;28;19931;-78
2023/05/21 13:17:17;;;;;;;;;;;23.90;99.90;;;;;;5071782;28;19925;-78
2023/05/21 13:19:45;;;;;;;;;;;23.90;99.90;;;;;;5060705;28;19924;-79
2023/05/21 13:22:11;;;;;;;;;;;24.00;99.90;;;;;;5061395;28;19935;-79
2023/05/21 13:24:38;;;;;;;;;;;23.90;99.90;;;;;;5077474;28;20143;-78
2023/05/21 13:27:04;;;;;;;;;;;24.00;99.90;;;;;;5061763;28;19924;-79
2023/05/21 13:29:30;;;;;;;;;;;24.00;99.90;;;;;;5075597;28;19948;-76
2023/05/21 13:31:55;;;;;;;;;;;23.90;99.90;;;;;;5077946;28;19924;-75
2023/05/21 13:34:21;;;;;;;;;;;23.80;99.70;;;;;;5076930;28;19928;-75
2023/05/21 13:36:46;;;;;;;;;;;23.80;99.90;;;;;;5093843;28;19925;-76
2023/05/21 13:39:12;;;;;;;;;;;23.80;99.90;;;;;;5073311;28;19960;-76
2023/05/21 13:41:37;;;;;;;;;;;23.80;99.90;;;;;;5060817;28;20319;-76
2023/05/21 13:44:03;;;;;;;;;;;23.70;99.90;;;;;;5078216;28;19925;-76
2023/05/21 13:46:29;;;;;;;;;;;23.80;99.90;;;;;;5078096;28;19943;-76
2023/05/21 13:48:54;;;;;;;;;;;23.60;99.90;;;;;;5059992;28;19943;-75
2023/05/21 13:51:20;;;;;;;;;;;23.60;99.90;;;;;;5075699;28;19928;-75
2023/05/21 13:53:46;;;;;;;;;;;23.50;99.90;;;;;;5060567;28;20277;-76
2023/05/21 13:56:11;;;;;;;;;;;23.40;99.90;;;;;;5060732;28;19950;-76
2023/05/21 13:58:39;;;;;;;;;;;23.40;99.90;;;;;;5093328;28;19955;-78
2023/05/21 14:01:05;;;;;;;;;;;23.40;99.90;;;;;;5060252;28;19925;-78
2023/05/21 14:03:30;;;;;;;;;;;23.40;99.90;;;;;;5076310;28;20007;-79
2023/05/21 14:05:56;;;;;;;;;;;23.50;99.90;;;;;;5074645;28;20558;-79
2023/05/21 14:08:23;;;;;;;;;;;23.60;99.90;;;;;;5061398;28;19937;-80
2023/05/21 14:10:48;;;;;;;;;;;23.60;99.90;;;;;;5059506;28;19974;-80
2023/05/21 14:13:14;;;;;;;;;;;23.50;99.90;;;;;;5075817;28;19938;-81